createdAt,value
2023-01-29T00:00:18.605Z,0.12
2023-01-29T00:01:07.309Z,0.15
2023-01-29T00:01:54.278Z,0.19
2023-01-29T00:02:41.267Z,0.23
2023-01-29T00:03:28.085Z,0.26
2023-01-29T00:04:15.080Z,0.19
2023-01-29T00:05:16.707Z,0.19
2023-01-29T00:06:09.597Z,0.22
2023-01-29T00:06:56.466Z,0.26
2023-01-29T00:07:43.448Z,0.24
2023-01-29T00:08:30.426Z,0.22
2023-01-29T00:09:17.401Z,0.22
2023-01-29T00:10:04.621Z,0.23
2023-01-29T00:10:51.627Z,0.19
2023-01-29T00:11:38.816Z,0.20
2023-01-29T00:12:25.809Z,0.15
2023-01-29T00:13:12.691Z,0.14
2023-01-29T00:13:59.529Z,0.12
2023-01-29T00:14:46.396Z,0.08
2023-01-29T00:15:33.224Z,0.06
2023-01-29T00:16:20.159Z,0.06
2023-01-29T00:17:07.051Z,0.11
2023-01-29T00:17:53.913Z,0.17
2023-01-29T00:18:41.496Z,0.16
2023-01-29T00:19:28.332Z,0.12
2023-01-29T00:20:16.095Z,0.16
2023-01-29T00:21:03.137Z,0.24
2023-01-29T00:21:49.977Z,0.21
2023-01-29T00:22:36.964Z,0.21
2023-01-29T00:23:23.937Z,0.31
2023-01-29T00:24:11.407Z,0.24
2023-01-29T00:24:58.480Z,0.12
2023-01-29T00:25:45.860Z,0.18
2023-01-29T00:26:32.859Z,0.12
2023-01-29T00:27:19.848Z,0.12
2023-01-29T00:28:06.700Z,0.14
2023-01-29T00:28:53.516Z,0.15
2023-01-29T00:29:40.439Z,0.28
2023-01-29T00:30:27.332Z,0.19
2023-01-29T00:31:17.181Z,0.18
2023-01-29T00:32:04.337Z,0.21
2023-01-29T00:32:51.402Z,0.27
2023-01-29T00:33:38.365Z,0.31
2023-01-29T00:34:25.271Z,0.30
2023-01-29T00:35:12.691Z,0.19
2023-01-29T00:36:03.018Z,0.23
2023-01-29T00:36:49.863Z,0.34
2023-01-29T00:37:36.890Z,0.22
2023-01-29T00:38:23.701Z,0.15
2023-01-29T00:39:13.243Z,0.14
2023-01-29T00:40:00.541Z,0.15
2023-01-29T00:41:06.124Z,0.18
2023-01-29T00:42:11.736Z,0.11
2023-01-29T00:43:17.364Z,0.07
2023-01-29T00:44:23.035Z,0.10
2023-01-29T00:45:10.920Z,0.18
2023-01-29T00:45:57.752Z,0.18
2023-01-29T00:46:44.885Z,0.18
2023-01-29T00:47:33.664Z,0.23
2023-01-29T00:48:20.759Z,0.23
2023-01-29T00:49:08.096Z,0.22
2023-01-29T00:49:55.226Z,0.16
2023-01-29T00:50:42.131Z,0.07
2023-01-29T00:51:29.069Z,0.15
2023-01-29T00:52:25.097Z,0.15
2023-01-29T00:53:11.907Z,0.16
2023-01-29T00:54:02.815Z,0.19
2023-01-29T00:54:49.775Z,0.28
2023-01-29T00:55:36.664Z,0.16
2023-01-29T00:56:23.515Z,0.10
2023-01-29T00:57:10.402Z,0.12
2023-01-29T00:57:57.320Z,0.11
2023-01-29T00:58:44.225Z,0.16
2023-01-29T00:59:31.172Z,0.26
2023-01-29T01:00:19.763Z,0.28
2023-01-29T01:01:06.714Z,0.30
2023-01-29T01:02:12.026Z,0.29
2023-01-29T01:03:07.919Z,0.19
2023-01-29T01:03:54.745Z,0.24
2023-01-29T01:04:41.588Z,0.19
2023-01-29T01:05:28.762Z,0.35
2023-01-29T01:06:15.612Z,0.33
2023-01-29T01:07:02.472Z,0.45
2023-01-29T01:07:51.198Z,0.35
2023-01-29T01:08:56.478Z,0.33
2023-01-29T01:10:02.096Z,0.31
2023-01-29T01:10:48.988Z,0.22
2023-01-29T01:11:35.883Z,0.31
2023-01-29T01:12:23.230Z,0.39
2023-01-29T01:13:10.052Z,0.43
2023-01-29T01:14:02.343Z,0.40
2023-01-29T01:14:49.425Z,0.43
2023-01-29T01:15:39.328Z,0.37
2023-01-29T01:16:27.231Z,0.43
2023-01-29T01:17:15.805Z,0.32
2023-01-29T01:18:03.962Z,0.36
2023-01-29T01:18:50.825Z,0.37
2023-01-29T01:19:37.703Z,0.37
2023-01-29T01:20:26.498Z,0.38
2023-01-29T01:21:13.641Z,0.32
2023-01-29T01:22:00.542Z,0.28
2023-01-29T01:22:47.447Z,0.18
2023-01-29T01:23:34.697Z,0.18
2023-01-29T01:24:21.675Z,0.24
2023-01-29T01:25:09.043Z,0.24
2023-01-29T01:25:56.017Z,0.29
2023-01-29T01:26:43.047Z,0.33
2023-01-29T01:27:30.086Z,0.35
2023-01-29T01:28:17.335Z,0.34
2023-01-29T01:29:04.411Z,0.34
2023-01-29T01:29:51.568Z,0.24
2023-01-29T01:30:38.475Z,0.31
2023-01-29T01:31:25.415Z,0.26
2023-01-29T01:32:12.757Z,0.29
2023-01-29T01:32:59.770Z,0.38
2023-01-29T01:33:46.701Z,0.38
2023-01-29T01:34:33.705Z,0.39
2023-01-29T01:35:20.788Z,0.30
2023-01-29T01:36:09.974Z,0.18
2023-01-29T01:36:57.052Z,0.20
2023-01-29T01:37:43.902Z,0.20
2023-01-29T01:38:30.753Z,0.26
2023-01-29T01:39:17.656Z,0.32
2023-01-29T01:40:06.206Z,0.33
2023-01-29T01:40:53.057Z,0.34
2023-01-29T01:41:40.068Z,0.38
2023-01-29T01:42:32.503Z,0.44
2023-01-29T01:43:19.345Z,0.38
2023-01-29T01:44:07.134Z,0.44
2023-01-29T01:45:01.434Z,0.39
2023-01-29T01:45:48.745Z,0.35
2023-01-29T01:46:37.406Z,0.31
2023-01-29T01:47:28.436Z,0.37
2023-01-29T01:48:25.221Z,0.35
2023-01-29T01:49:19.329Z,0.26
2023-01-29T01:50:40.066Z,0.27
2023-01-29T01:51:29.467Z,0.29
2023-01-29T01:52:18.096Z,0.32
2023-01-29T01:53:08.308Z,0.28
2023-01-29T01:53:59.511Z,0.31
2023-01-29T01:54:46.596Z,0.37
2023-01-29T01:55:34.627Z,0.37
2023-01-29T01:56:24.695Z,0.36
2023-01-29T01:57:18.672Z,0.21
2023-01-29T01:58:27.449Z,0.30
2023-01-29T01:59:17.795Z,0.32
2023-01-29T02:00:11.337Z,0.23
2023-01-29T02:00:58.368Z,0.19
2023-01-29T02:01:50.360Z,0.19
2023-01-29T02:02:58.407Z,0.29
2023-01-29T02:04:09.757Z,0.28
2023-01-29T02:05:15.191Z,0.29
2023-01-29T02:06:20.949Z,0.32
2023-01-29T02:07:28.159Z,0.22
2023-01-29T02:08:35.689Z,0.26
2023-01-29T02:09:46.567Z,0.27
2023-01-29T02:10:38.561Z,0.27
2023-01-29T02:11:25.667Z,0.18
2023-01-29T02:12:13.963Z,0.13
2023-01-29T02:13:00.868Z,0.13
2023-01-29T02:13:53.747Z,0.12
2023-01-29T02:14:42.365Z,0.16
2023-01-29T02:15:29.188Z,0.16
2023-01-29T02:16:16.111Z,0.19
2023-01-29T02:17:03.095Z,0.19
2023-01-29T02:17:50.194Z,0.28
2023-01-29T02:18:38.358Z,0.30
2023-01-29T02:20:05.629Z,0.31
2023-01-29T02:21:25.340Z,0.27
2023-01-29T02:22:30.865Z,0.25
2023-01-29T02:23:40.549Z,0.24
2023-01-29T02:24:48.890Z,0.20
2023-01-29T02:25:50.687Z,0.21
2023-01-29T02:27:09.887Z,0.15
2023-01-29T02:28:44.117Z,0.17
2023-01-29T02:29:40.133Z,0.14
2023-01-29T02:30:37.284Z,0.10
2023-01-29T02:31:41.673Z,0.07
2023-01-29T02:32:41.066Z,0.11
2023-01-29T02:33:37.376Z,0.12
2023-01-29T02:35:30.379Z,0.15
2023-01-29T02:36:27.842Z,0.10
2023-01-29T02:37:15.660Z,0.12
2023-01-29T02:38:21.117Z,0.08
2023-01-29T02:39:34.342Z,0.09
2023-01-29T02:40:23.787Z,0.11
2023-01-29T02:41:41.442Z,0.27
2023-01-29T02:42:41.094Z,0.23
2023-01-29T02:43:38.801Z,0.24
2023-01-29T02:44:56.324Z,0.35
2023-01-29T02:45:55.474Z,0.29
2023-01-29T02:47:01.746Z,0.27
2023-01-29T02:47:59.631Z,0.22
2023-01-29T02:48:52.653Z,0.26
2023-01-29T02:50:00.554Z,0.27
2023-01-29T02:50:54.506Z,0.22
2023-01-29T02:51:45.494Z,0.08
2023-01-29T02:52:44.845Z,0.14
2023-01-29T02:53:39.603Z,0.20
2023-01-29T02:54:42.243Z,0.17
2023-01-29T02:55:31.087Z,0.12
2023-01-29T02:56:29.546Z,0.13
2023-01-29T02:57:30.874Z,0.10
2023-01-29T02:58:22.131Z,0.22
2023-01-29T02:59:15.324Z,0.16
2023-01-29T03:00:11.352Z,0.10
2023-01-29T03:01:02.487Z,0.15
2023-01-29T03:01:53.697Z,0.15
2023-01-29T03:02:43.162Z,0.25
2023-01-29T03:03:41.654Z,0.24
2023-01-29T03:04:32.308Z,0.15
2023-01-29T03:05:24.550Z,0.09
2023-01-29T03:06:28.496Z,0.18
2023-01-29T03:07:44.857Z,0.17
2023-01-29T03:09:06.584Z,0.14
2023-01-29T03:09:54.599Z,0.13
2023-01-29T03:10:49.392Z,0.12
2023-01-29T03:11:41.622Z,0.14
2023-01-29T03:12:34.192Z,0.17
2023-01-29T03:13:33.934Z,0.31
2023-01-29T03:15:01.734Z,0.27
2023-01-29T03:16:01.720Z,0.20
2023-01-29T03:16:53.112Z,0.20
2023-01-29T03:17:52.161Z,0.14
2023-01-29T03:18:46.350Z,0.13
2023-01-29T03:19:37.707Z,0.20
2023-01-29T03:20:32.390Z,0.16
2023-01-29T03:21:45.209Z,0.14
2023-01-29T03:22:32.184Z,0.07
2023-01-29T03:23:44.477Z,0.08
2023-01-29T03:25:11.672Z,0.08
2023-01-29T03:26:18.236Z,0.05
2023-01-29T03:27:27.806Z,0.11
2023-01-29T03:28:36.288Z,0.07
2023-01-29T03:29:41.860Z,0.11
2023-01-29T03:30:49.890Z,0.06
2023-01-29T03:31:55.702Z,0.04
2023-01-29T03:32:43.628Z,0.05
2023-01-29T03:33:33.921Z,0.18
2023-01-29T03:34:28.714Z,0.16
2023-01-29T03:35:21.895Z,0.10
2023-01-29T03:36:19.502Z,0.08
2023-01-29T03:37:14.077Z,0.11
2023-01-29T03:38:01.194Z,0.06
2023-01-29T03:38:48.034Z,0.14
2023-01-29T03:39:35.390Z,0.03
2023-01-29T03:40:22.372Z,0.05
2023-01-29T03:41:14.695Z,0.02
2023-01-29T03:42:10.600Z,0.07
2023-01-29T03:43:10.402Z,0.03
2023-01-29T03:44:09.891Z,0.06
2023-01-29T03:45:18.037Z,0.04
2023-01-29T03:46:14.483Z,-0.01
2023-01-29T03:47:23.770Z,0.02
2023-01-29T03:48:34.392Z,0.03
2023-01-29T03:49:39.338Z,0.06
2023-01-29T03:50:42.902Z,0.03
2023-01-29T03:51:41.213Z,0.04
2023-01-29T03:53:08.691Z,0.05
2023-01-29T03:53:55.590Z,0.05
2023-01-29T03:55:01.465Z,0.09
2023-01-29T03:55:58.534Z,0.02
2023-01-29T03:56:48.293Z,-0.01
2023-01-29T03:57:59.165Z,-0.04
2023-01-29T03:59:03.265Z,-0.06
2023-01-29T04:00:08.205Z,-0.05
2023-01-29T04:00:59.143Z,-0.02
2023-01-29T04:01:55.309Z,-0.10
2023-01-29T04:02:56.001Z,-0.07
2023-01-29T04:03:50.413Z,-0.09
2023-01-29T04:04:38.674Z,-0.06
2023-01-29T04:05:28.511Z,-0.04
2023-01-29T04:06:19.494Z,0.01
2023-01-29T04:07:14.388Z,-0.03
2023-01-29T04:08:10.560Z,0.05
2023-01-29T04:09:07.714Z,0.02
2023-01-29T04:10:05.346Z,0.02
2023-01-29T04:10:53.380Z,0.06
2023-01-29T04:11:45.716Z,-0.07
2023-01-29T04:12:38.593Z,0.02
2023-01-29T04:13:25.550Z,0.05
2023-01-29T04:14:12.749Z,0.05
2023-01-29T04:15:02.189Z,-0.02
2023-01-29T04:15:58.566Z,-0.04
2023-01-29T04:16:50.410Z,-0.03
2023-01-29T04:17:43.695Z,0.03
2023-01-29T04:18:35.175Z,-0.02
2023-01-29T04:19:23.177Z,-0.02
2023-01-29T04:20:10.646Z,0.06
2023-01-29T04:20:57.467Z,0.09
2023-01-29T04:21:44.384Z,0.10
2023-01-29T04:22:39.170Z,0.07
2023-01-29T04:23:27.579Z,0.04
2023-01-29T04:24:15.131Z,0.05
2023-01-29T04:25:08.617Z,0.00
2023-01-29T04:26:26.660Z,0.02
2023-01-29T04:27:24.637Z,-0.06
2023-01-29T04:28:19.130Z,0.00
2023-01-29T04:29:31.166Z,0.00
2023-01-29T04:30:18.140Z,0.02
2023-01-29T04:31:08.828Z,0.05
2023-01-29T04:31:55.758Z,0.04
2023-01-29T04:33:16.264Z,0.10
2023-01-29T04:34:18.019Z,0.10
2023-01-29T04:35:28.068Z,0.15
2023-01-29T04:36:36.946Z,0.03
2023-01-29T04:37:42.764Z,0.03
2023-01-29T04:38:41.563Z,0.07
2023-01-29T04:39:50.307Z,0.09
2023-01-29T04:41:04.588Z,0.09
2023-01-29T04:42:37.900Z,0.03
2023-01-29T04:43:29.694Z,-0.03
2023-01-29T04:44:45.428Z,-0.06
2023-01-29T04:45:50.437Z,-0.16
2023-01-29T04:46:50.835Z,-0.15
2023-01-29T04:47:46.599Z,-0.15
2023-01-29T04:48:59.922Z,-0.11
2023-01-29T04:50:39.122Z,-0.09
2023-01-29T04:51:35.573Z,-0.08
2023-01-29T04:52:29.539Z,-0.05
2023-01-29T04:53:40.878Z,-0.06
2023-01-29T04:54:54.830Z,-0.03
2023-01-29T04:55:55.222Z,-0.11
2023-01-29T04:56:51.573Z,-0.14
2023-01-29T04:58:00.250Z,-0.20
2023-01-29T04:59:01.423Z,-0.24
2023-01-29T04:59:54.543Z,-0.23
2023-01-29T05:00:45.028Z,-0.18
2023-01-29T05:01:33.592Z,-0.16
2023-01-29T05:02:22.364Z,-0.23
2023-01-29T05:03:11.777Z,-0.16
2023-01-29T05:04:00.613Z,-0.12
2023-01-29T05:04:48.254Z,-0.11
2023-01-29T05:05:35.371Z,-0.16
2023-01-29T05:06:23.165Z,-0.14
2023-01-29T05:07:12.738Z,-0.15
2023-01-29T05:08:00.012Z,-0.16
2023-01-29T05:08:48.097Z,-0.16
2023-01-29T05:09:35.213Z,-0.13
2023-01-29T05:10:23.079Z,-0.16
2023-01-29T05:11:10.519Z,-0.26
2023-01-29T05:11:57.599Z,-0.21
2023-01-29T05:12:48.229Z,-0.24
2023-01-29T05:13:35.051Z,-0.13
2023-01-29T05:14:23.774Z,-0.16
2023-01-29T05:15:14.921Z,-0.16
2023-01-29T05:16:15.876Z,-0.19
2023-01-29T05:17:07.826Z,-0.19
2023-01-29T05:17:54.679Z,-0.11
2023-01-29T05:18:41.781Z,-0.13
2023-01-29T05:19:28.593Z,-0.16
2023-01-29T05:20:15.686Z,-0.16
2023-01-29T05:21:05.714Z,-0.24
2023-01-29T05:21:52.620Z,-0.23
2023-01-29T05:22:41.707Z,-0.22
2023-01-29T05:23:28.549Z,-0.25
2023-01-29T05:24:24.357Z,-0.22
2023-01-29T05:25:25.261Z,-0.03
2023-01-29T05:26:30.500Z,-0.05
2023-01-29T05:27:51.020Z,-0.14
2023-01-29T05:28:37.867Z,-0.28
2023-01-29T05:29:24.713Z,-0.30
2023-01-29T05:30:11.882Z,-0.34
2023-01-29T05:30:58.888Z,-0.34
2023-01-29T05:31:46.078Z,-0.30
2023-01-29T05:32:33.447Z,-0.39
2023-01-29T05:33:28.344Z,-0.39
2023-01-29T05:34:15.258Z,-0.37
2023-01-29T05:35:02.125Z,-0.36
2023-01-29T05:35:50.214Z,-0.36
2023-01-29T05:36:37.037Z,-0.34
2023-01-29T05:37:23.922Z,-0.30
2023-01-29T05:38:11.549Z,-0.26
2023-01-29T05:38:58.348Z,-0.23
2023-01-29T05:39:45.145Z,-0.11
2023-01-29T05:40:31.975Z,-0.31
2023-01-29T05:41:18.933Z,-0.30
2023-01-29T05:42:05.841Z,-0.27
2023-01-29T05:42:52.676Z,-0.25
2023-01-29T05:43:39.514Z,-0.25
2023-01-29T05:44:26.518Z,-0.19
2023-01-29T05:45:13.422Z,-0.19
2023-01-29T05:46:01.149Z,-0.30
2023-01-29T05:46:48.030Z,-0.30
2023-01-29T05:47:34.927Z,-0.25
2023-01-29T05:48:22.226Z,-0.23
2023-01-29T05:49:09.266Z,-0.24
2023-01-29T05:49:56.112Z,-0.28
2023-01-29T05:50:42.974Z,-0.32
2023-01-29T05:51:29.813Z,-0.37
2023-01-29T05:52:16.647Z,-0.31
2023-01-29T05:53:03.498Z,-0.31
2023-01-29T05:53:50.317Z,-0.23
2023-01-29T05:54:37.170Z,-0.22
2023-01-29T05:55:23.985Z,-0.24
2023-01-29T05:56:10.995Z,-0.30
2023-01-29T05:56:57.821Z,-0.28
2023-01-29T05:57:44.627Z,-0.28
2023-01-29T05:58:34.668Z,-0.20
2023-01-29T05:59:21.626Z,-0.25
2023-01-29T06:00:09.502Z,-0.15
2023-01-29T06:00:56.322Z,-0.11
2023-01-29T06:01:43.264Z,-0.21
2023-01-29T06:02:31.705Z,-0.30
2023-01-29T06:03:18.609Z,-0.37
2023-01-29T06:04:05.543Z,-0.39
2023-01-29T06:04:52.861Z,-0.30
2023-01-29T06:05:40.239Z,-0.16
2023-01-29T06:06:27.118Z,-0.24
2023-01-29T06:07:13.989Z,-0.28
2023-01-29T06:08:00.795Z,-0.27
2023-01-29T06:08:47.895Z,-0.26
2023-01-29T06:09:34.704Z,-0.25
2023-01-29T06:10:21.553Z,-0.15
2023-01-29T06:11:09.932Z,-0.14
2023-01-29T06:11:56.766Z,-0.09
2023-01-29T06:12:44.069Z,-0.08
2023-01-29T06:13:30.898Z,-0.25
2023-01-29T06:14:17.758Z,-0.31
2023-01-29T06:15:05.051Z,-0.28
2023-01-29T06:15:51.971Z,-0.28
2023-01-29T06:16:38.811Z,-0.25
2023-01-29T06:17:25.671Z,-0.22
2023-01-29T06:18:12.546Z,-0.30
2023-01-29T06:18:59.416Z,-0.30
2023-01-29T06:19:46.227Z,-0.34
2023-01-29T06:20:33.019Z,-0.28
2023-01-29T06:21:20.231Z,-0.16
2023-01-29T06:22:07.174Z,-0.27
2023-01-29T06:22:54.019Z,-0.36
2023-01-29T06:23:41.331Z,-0.26
2023-01-29T06:24:28.186Z,-0.24
2023-01-29T06:25:15.170Z,-0.31
2023-01-29T06:26:07.576Z,-0.31
2023-01-29T06:26:54.469Z,-0.26
2023-01-29T06:27:41.345Z,-0.30
2023-01-29T06:28:28.357Z,-0.35
2023-01-29T06:29:15.242Z,-0.29
2023-01-29T06:30:02.739Z,-0.34
2023-01-29T06:30:49.562Z,-0.30
2023-01-29T06:31:39.234Z,-0.32
2023-01-29T06:32:26.665Z,-0.29
2023-01-29T06:33:13.442Z,-0.39
2023-01-29T06:34:00.304Z,-0.36
2023-01-29T06:34:49.621Z,-0.29
2023-01-29T06:35:36.601Z,-0.31
2023-01-29T06:36:23.537Z,-0.25
2023-01-29T06:37:10.432Z,-0.30
2023-01-29T06:37:57.390Z,-0.27
2023-01-29T06:38:44.237Z,-0.31
2023-01-29T06:39:31.145Z,-0.31
2023-01-29T06:40:18.355Z,-0.33
2023-01-29T06:41:11.249Z,-0.27
2023-01-29T06:41:58.067Z,-0.27
2023-01-29T06:42:46.173Z,-0.24
2023-01-29T06:43:33.214Z,-0.28
2023-01-29T06:44:20.185Z,-0.24
2023-01-29T06:45:07.585Z,-0.28
2023-01-29T06:45:58.113Z,-0.23
2023-01-29T06:46:44.866Z,-0.25
2023-01-29T06:47:31.799Z,-0.33
2023-01-29T06:48:19.452Z,-0.43
2023-01-29T06:49:06.547Z,-0.36
2023-01-29T06:49:53.485Z,-0.26
2023-01-29T06:50:40.276Z,-0.26
2023-01-29T06:51:27.195Z,-0.35
2023-01-29T06:52:14.023Z,-0.46
2023-01-29T06:53:00.842Z,-0.42
2023-01-29T06:53:47.681Z,-0.31
2023-01-29T06:54:34.509Z,-0.22
2023-01-29T06:55:21.545Z,-0.28
2023-01-29T06:56:08.896Z,-0.24
2023-01-29T06:56:56.464Z,-0.34
2023-01-29T06:57:43.313Z,-0.46
2023-01-29T06:58:30.235Z,-0.33
2023-01-29T06:59:17.119Z,-0.39
2023-01-29T07:00:06.483Z,-0.39
2023-01-29T07:00:53.431Z,-0.37
2023-01-29T07:01:44.566Z,-0.36
2023-01-29T07:02:31.521Z,-0.44
2023-01-29T07:03:18.757Z,-0.49
2023-01-29T07:04:05.688Z,-0.52
2023-01-29T07:04:52.723Z,-0.37
2023-01-29T07:05:39.606Z,-0.27
2023-01-29T07:06:30.037Z,-0.35
2023-01-29T07:07:16.939Z,-0.40
2023-01-29T07:08:04.205Z,-0.40
2023-01-29T07:08:51.024Z,-0.46
2023-01-29T07:09:37.873Z,-0.46
2023-01-29T07:10:24.700Z,-0.42
2023-01-29T07:11:11.635Z,-0.38
2023-01-29T07:11:58.481Z,-0.45
2023-01-29T07:12:45.307Z,-0.51
2023-01-29T07:13:32.284Z,-0.51
2023-01-29T07:14:19.063Z,-0.40
2023-01-29T07:15:06.563Z,-0.24
2023-01-29T07:15:53.538Z,-0.30
2023-01-29T07:16:40.388Z,-0.45
2023-01-29T07:17:27.222Z,-0.44
2023-01-29T07:18:14.113Z,-0.48
2023-01-29T07:19:01.630Z,-0.42
2023-01-29T07:19:48.438Z,-0.43
2023-01-29T07:20:35.786Z,-0.47
2023-01-29T07:21:22.702Z,-0.40
2023-01-29T07:22:09.540Z,-0.30
2023-01-29T07:22:59.291Z,-0.39
2023-01-29T07:23:46.734Z,-0.40
2023-01-29T07:24:33.592Z,-0.36
2023-01-29T07:25:21.693Z,-0.35
2023-01-29T07:26:08.572Z,-0.37
2023-01-29T07:26:55.463Z,-0.35
2023-01-29T07:27:42.290Z,-0.39
2023-01-29T07:28:29.641Z,-0.45
2023-01-29T07:29:16.477Z,-0.38
2023-01-29T07:30:03.516Z,-0.32
2023-01-29T07:30:50.423Z,-0.29
2023-01-29T07:31:37.352Z,-0.33
2023-01-29T07:32:24.255Z,-0.36
2023-01-29T07:33:11.798Z,-0.39
2023-01-29T07:33:58.680Z,-0.44
2023-01-29T07:34:45.523Z,-0.45
2023-01-29T07:35:32.890Z,-0.51
2023-01-29T07:36:19.753Z,-0.41
2023-01-29T07:37:06.601Z,-0.39
2023-01-29T07:37:53.427Z,-0.42
2023-01-29T07:38:40.263Z,-0.40
2023-01-29T07:39:27.129Z,-0.39
2023-01-29T07:40:14.297Z,-0.31
2023-01-29T07:41:03.051Z,-0.38
2023-01-29T07:41:50.300Z,-0.45
2023-01-29T07:42:42.369Z,-0.44
2023-01-29T07:43:29.254Z,-0.33
2023-01-29T07:44:16.309Z,-0.29
2023-01-29T07:45:03.276Z,-0.31
2023-01-29T07:45:50.203Z,-0.39
2023-01-29T07:46:37.034Z,-0.35
2023-01-29T07:47:23.863Z,-0.38
2023-01-29T07:48:14.215Z,-0.22
2023-01-29T07:49:01.106Z,-0.23
2023-01-29T07:49:47.961Z,-0.21
2023-01-29T07:50:35.444Z,-0.18
2023-01-29T07:51:22.383Z,-0.03
2023-01-29T07:52:09.327Z,-0.07
2023-01-29T07:52:56.634Z,-0.06
2023-01-29T07:53:44.577Z,0.06
2023-01-29T07:54:31.808Z,0.06
2023-01-29T07:55:18.789Z,-0.04
2023-01-29T07:56:05.987Z,-0.04
2023-01-29T07:56:52.802Z,-0.04
2023-01-29T07:57:39.692Z,-0.19
2023-01-29T07:58:26.582Z,-0.14
2023-01-29T07:59:13.451Z,-0.17
2023-01-29T08:00:00.265Z,-0.12
2023-01-29T08:00:47.136Z,-0.05
2023-01-29T08:01:33.997Z,-0.01
2023-01-29T08:02:20.994Z,0.03
2023-01-29T08:03:12.630Z,0.08
2023-01-29T08:03:59.526Z,0.22
2023-01-29T08:04:46.399Z,0.17
2023-01-29T08:05:33.640Z,0.07
2023-01-29T08:06:20.498Z,0.22
2023-01-29T08:07:09.598Z,0.07
2023-01-29T08:08:06.227Z,0.16
2023-01-29T08:08:55.909Z,0.19
2023-01-29T08:09:42.756Z,0.26
2023-01-29T08:10:29.838Z,0.20
2023-01-29T08:11:16.921Z,0.19
2023-01-29T08:12:03.904Z,0.24
2023-01-29T08:12:57.206Z,0.06
2023-01-29T08:13:44.307Z,-0.17
2023-01-29T08:14:31.155Z,-0.27
2023-01-29T08:15:17.959Z,-0.13
2023-01-29T08:16:05.470Z,-0.10
2023-01-29T08:16:52.323Z,-0.15
2023-01-29T08:17:56.048Z,-0.04
2023-01-29T08:18:47.804Z,-0.01
2023-01-29T08:19:34.547Z,0.05
2023-01-29T08:21:36.788Z,0.08
2023-01-29T08:22:23.604Z,0.04
2023-01-29T08:23:15.933Z,0.10
2023-01-29T08:24:02.753Z,0.31
2023-01-29T08:24:59.876Z,0.28
2023-01-29T08:25:46.819Z,0.18
2023-01-29T08:26:33.865Z,0.15
2023-01-29T08:27:20.826Z,0.16
2023-01-29T08:28:07.906Z,0.06
2023-01-29T08:28:54.944Z,-0.12
2023-01-29T08:29:41.977Z,-0.02
2023-01-29T08:30:31.403Z,0.00
2023-01-29T08:31:20.778Z,-0.15
2023-01-29T08:32:11.402Z,-0.16
2023-01-29T08:32:58.452Z,-0.16
2023-01-29T08:33:45.428Z,-0.04
2023-01-29T08:34:32.493Z,0.01
2023-01-29T08:35:19.673Z,-0.04
2023-01-29T08:36:08.329Z,0.10
2023-01-29T08:36:55.193Z,0.12
2023-01-29T08:37:42.336Z,0.13
2023-01-29T08:38:29.295Z,0.23
2023-01-29T08:39:16.227Z,0.31
2023-01-29T08:40:03.907Z,0.27
2023-01-29T08:40:51.015Z,0.33
2023-01-29T08:41:38.093Z,0.30
2023-01-29T08:42:24.983Z,0.16
2023-01-29T08:43:13.237Z,0.16
2023-01-29T08:44:03.377Z,0.20
2023-01-29T08:44:50.352Z,0.21
2023-01-29T08:45:39.850Z,0.34
2023-01-29T08:46:26.870Z,0.36
2023-01-29T08:47:14.008Z,0.39
2023-01-29T08:48:01.064Z,0.47
2023-01-29T08:48:47.991Z,0.45
2023-01-29T08:49:35.482Z,0.47
2023-01-29T08:50:22.579Z,0.60
2023-01-29T08:51:09.564Z,0.59
2023-01-29T08:52:01.266Z,0.52
2023-01-29T08:52:49.359Z,0.60
2023-01-29T08:53:36.287Z,0.70
2023-01-29T08:54:24.006Z,0.66
2023-01-29T08:55:11.986Z,0.57
2023-01-29T08:55:59.241Z,0.60
2023-01-29T08:56:46.203Z,0.74
2023-01-29T08:57:33.143Z,0.59
2023-01-29T08:58:20.642Z,0.52
2023-01-29T08:59:07.626Z,0.58
2023-01-29T08:59:54.562Z,0.54
2023-01-29T09:00:41.519Z,0.57
2023-01-29T09:01:28.520Z,0.58
2023-01-29T09:02:15.526Z,0.69
2023-01-29T09:03:03.416Z,0.74
2023-01-29T09:03:50.761Z,0.64
2023-01-29T09:04:37.751Z,0.51
2023-01-29T09:05:24.703Z,0.40
2023-01-29T09:06:13.024Z,0.56
2023-01-29T09:07:00.042Z,0.46
2023-01-29T09:07:47.121Z,0.50
2023-01-29T09:08:34.524Z,0.46
2023-01-29T09:09:21.398Z,0.49
2023-01-29T09:10:09.106Z,0.34
2023-01-29T09:10:59.849Z,0.45
2023-01-29T09:11:46.819Z,0.57
2023-01-29T09:12:33.850Z,0.48
2023-01-29T09:13:20.780Z,0.48
2023-01-29T09:14:07.892Z,0.54
2023-01-29T09:14:54.861Z,0.56
2023-01-29T09:15:41.944Z,0.44
2023-01-29T09:16:28.974Z,0.37
2023-01-29T09:17:15.958Z,0.34
2023-01-29T09:18:06.402Z,0.35
2023-01-29T09:18:54.675Z,0.47
2023-01-29T09:19:41.611Z,0.57
2023-01-29T09:20:28.559Z,0.37
2023-01-29T09:21:15.592Z,0.46
2023-01-29T09:22:02.925Z,0.56
2023-01-29T09:22:52.177Z,0.65
2023-01-29T09:23:39.254Z,0.63
2023-01-29T09:24:26.266Z,0.60
2023-01-29T09:25:14.448Z,0.51
2023-01-29T09:26:01.794Z,0.57
2023-01-29T09:26:48.785Z,0.65
2023-01-29T09:27:35.857Z,0.79
2023-01-29T09:28:23.098Z,0.77
2023-01-29T09:29:11.214Z,0.77
2023-01-29T09:29:58.302Z,0.74
2023-01-29T09:30:45.882Z,0.74
2023-01-29T09:31:33.869Z,0.67
2023-01-29T09:32:49.725Z,0.59
2023-01-29T09:33:28.233Z,0.57
2023-01-29T09:34:15.352Z,0.38
2023-01-29T09:35:02.361Z,0.23
2023-01-29T09:35:49.273Z,0.18
2023-01-29T09:36:36.312Z,0.09
2023-01-29T09:37:23.546Z,-0.01
2023-01-29T09:38:11.046Z,0.09
2023-01-29T09:38:58.018Z,0.12
2023-01-29T09:39:45.164Z,0.20
2023-01-29T09:40:46.906Z,0.19
2023-01-29T09:41:39.814Z,0.06
2023-01-29T09:42:45.566Z,-0.06
2023-01-29T09:43:42.979Z,-0.09
2023-01-29T09:44:54.684Z,0.04
2023-01-29T09:45:55.859Z,0.13
2023-01-29T09:46:45.309Z,0.18
2023-01-29T09:47:35.098Z,0.11
2023-01-29T09:48:25.726Z,0.12
2023-01-29T09:49:17.125Z,0.07
2023-01-29T09:50:07.769Z,-0.02
2023-01-29T09:50:55.468Z,0.03
2023-01-29T09:51:45.333Z,0.03
2023-01-29T09:52:32.321Z,0.08
2023-01-29T09:53:28.135Z,0.07
2023-01-29T09:54:31.423Z,0.10
2023-01-29T09:55:29.807Z,0.20
2023-01-29T09:56:23.945Z,0.28
2023-01-29T09:57:17.601Z,0.37
2023-01-29T09:58:12.609Z,0.37
2023-01-29T09:59:01.533Z,0.33
2023-01-29T09:59:49.065Z,0.28
2023-01-29T10:00:47.409Z,0.33
2023-01-29T10:01:48.635Z,0.38
2023-01-29T10:02:54.866Z,0.44
2023-01-29T10:03:49.695Z,0.38
2023-01-29T10:04:49.178Z,0.31
2023-01-29T10:06:13.739Z,0.28
2023-01-29T10:07:12.460Z,0.35
2023-01-29T10:08:18.249Z,0.42
2023-01-29T10:09:25.572Z,0.54
2023-01-29T10:10:27.871Z,0.46
2023-01-29T10:11:45.169Z,0.44
2023-01-29T10:12:50.630Z,0.38
2023-01-29T10:14:18.232Z,0.28
2023-01-29T10:15:08.889Z,0.38
2023-01-29T10:16:14.235Z,0.46
2023-01-29T10:17:08.620Z,0.48
2023-01-29T10:18:25.752Z,0.53
2023-01-29T10:19:31.413Z,0.45
2023-01-29T10:20:51.417Z,0.43
2023-01-29T10:21:43.317Z,0.52
2023-01-29T10:22:37.356Z,0.49
2023-01-29T10:23:34.688Z,0.47
2023-01-29T10:24:38.398Z,0.54
2023-01-29T10:25:25.777Z,0.40
2023-01-29T10:26:13.869Z,0.49
2023-01-29T10:27:01.452Z,0.69
2023-01-29T10:27:54.720Z,0.83
2023-01-29T10:28:47.739Z,0.92
2023-01-29T10:29:34.840Z,0.91
2023-01-29T10:30:38.045Z,0.83
2023-01-29T10:31:33.267Z,0.99
2023-01-29T10:32:24.214Z,0.85
2023-01-29T10:33:12.987Z,0.92
2023-01-29T10:34:15.415Z,0.94
2023-01-29T10:35:28.054Z,1.07
2023-01-29T10:36:22.066Z,1.08
2023-01-29T10:37:18.705Z,1.23
2023-01-29T10:38:20.882Z,1.32
2023-01-29T10:39:17.609Z,1.45
2023-01-29T10:40:21.993Z,1.45
2023-01-29T10:41:15.159Z,1.53
2023-01-29T10:42:23.668Z,1.38
2023-01-29T10:43:39.007Z,1.48
2023-01-29T10:44:47.401Z,1.60
2023-01-29T10:45:41.611Z,1.64
2023-01-29T10:46:42.099Z,1.46
2023-01-29T10:47:37.900Z,1.64
2023-01-29T10:49:03.820Z,1.39
2023-01-29T10:50:02.606Z,1.40
2023-01-29T10:50:58.045Z,1.22
2023-01-29T10:52:03.555Z,1.26
2023-01-29T10:53:14.461Z,1.14
2023-01-29T10:54:14.178Z,0.99
2023-01-29T10:55:25.308Z,1.07
2023-01-29T10:56:23.328Z,1.17
2023-01-29T10:57:38.096Z,1.13
2023-01-29T10:58:25.012Z,1.11
2023-01-29T10:59:20.653Z,1.01
2023-01-29T11:00:18.372Z,0.87
2023-01-29T11:01:05.368Z,1.01
2023-01-29T11:01:52.467Z,1.00
2023-01-29T11:02:48.637Z,1.10
2023-01-29T11:03:35.970Z,1.15
2023-01-29T11:04:23.426Z,1.12
2023-01-29T11:05:26.856Z,1.33
2023-01-29T11:06:24.325Z,1.41
2023-01-29T11:07:12.694Z,1.54
2023-01-29T11:08:07.979Z,1.50
2023-01-29T11:08:59.623Z,1.58
2023-01-29T11:09:56.789Z,1.78
2023-01-29T11:11:10.008Z,1.85
2023-01-29T11:12:05.597Z,1.68
2023-01-29T11:12:53.465Z,1.58
2023-01-29T11:14:16.122Z,1.38
2023-01-29T11:15:20.345Z,1.29
2023-01-29T11:16:09.504Z,1.29
2023-01-29T11:16:56.570Z,1.08
2023-01-29T11:18:05.733Z,0.97
2023-01-29T11:18:58.132Z,1.15
2023-01-29T11:19:46.996Z,1.12
2023-01-29T11:20:34.422Z,1.09
2023-01-29T11:21:22.406Z,1.03
2023-01-29T11:22:23.862Z,1.00
2023-01-29T11:23:33.403Z,0.95
2023-01-29T11:24:20.362Z,1.00
2023-01-29T11:25:19.168Z,1.10
2023-01-29T11:26:07.396Z,1.07
2023-01-29T11:26:59.352Z,1.09
2023-01-29T11:27:49.865Z,1.14
2023-01-29T11:28:45.463Z,1.10
2023-01-29T11:29:48.548Z,1.10
2023-01-29T11:30:40.198Z,1.09